sensor_id;sensor_type;location;lat;lon;timestamp;P1;durP1;ratioP1;P2;durP2;ratioP2
53533;SDS011;39421;53.204;6.568;2024-01-06T08:59:00;18.77;;;13.10;;
53533;SDS011;39421;53.204;6.568;2024-01-06T09:01:26;19.00;;;12.82;;
53533;SDS011;39421;53.204;6.568;2024-01-06T09:03:52;18.73;;;12.77;;
53533;SDS011;39421;53.204;6.568;2024-01-06T09:06:18;18.52;;;12.63;;
53533;SDS011;39421;53.204;6.568;2024-01-06T09:08:44;18.65;;;12.57;;
53533;SDS011;39421;53.204;6.568;2024-01-06T09:11:10;18.42;;;12.68;;
53533;SDS011;39421;53.204;6.568;2024-01-06T09:13:36;18.87;;;12.57;;
53533;SDS011;39421;53.204;6.568;2024-01-06T09:16:03;19.02;;;12.55;;
53533;SDS011;39421;53.204;6.568;2024-01-06T09:18:29;18.58;;;12.70;;
53533;SDS011;39421;53.204;6.568;2024-01-06T09:20:55;18.20;;;12.60;;
53533;SDS011;39421;53.204;6.568;2024-01-06T09:23:22;19.08;;;12.63;;
53533;SDS011;39421;53.204;6.568;2024-01-06T09:25:48;18.60;;;12.73;;
53533;SDS011;39421;53.204;6.568;2024-01-06T09:28:16;18.50;;;12.77;;
53533;SDS011;39421;53.204;6.568;2024-01-06T09:30:42;18.60;;;12.38;;
53533;SDS011;39421;53.204;6.568;2024-01-06T09:33:08;17.75;;;11.55;;
53533;SDS011;39421;53.204;6.568;2024-01-06T09:35:34;16.47;;;11.27;;
53533;SDS011;39421;53.204;6.568;2024-01-06T09:38:00;18.50;;;12.90;;
53533;SDS011;39421;53.204;6.568;2024-01-06T09:40:26;18.05;;;12.05;;
53533;SDS011;39421;53.204;6.568;2024-01-06T09:42:56;16.67;;;11.48;;
53533;SDS011;39421;53.204;6.568;2024-01-06T09:45:22;18.13;;;12.02;;
53533;SDS011;39421;53.204;6.568;2024-01-06T09:47:49;17.00;;;11.43;;
53533;SDS011;39421;53.204;6.568;2024-01-06T09:50:17;18.55;;;12.25;;
53533;SDS011;39421;53.204;6.568;2024-01-06T09:52:45;17.20;;;11.80;;
53533;SDS011;39421;53.204;6.568;2024-01-06T09:55:18;17.30;;;11.30;;
53533;SDS011;39421;53.204;6.568;2024-01-06T09:57:46;18.25;;;12.48;;
53533;SDS011;39421;53.204;6.568;2024-01-06T10:00:12;18.13;;;12.23;;
53533;SDS011;39421;53.204;6.568;2024-01-06T10:02:39;17.90;;;12.50;;
53533;SDS011;39421;53.204;6.568;2024-01-06T10:05:06;18.27;;;12.60;;
53533;SDS011;39421;53.204;6.568;2024-01-06T10:07:32;19.50;;;12.38;;
53533;SDS011;39421;53.204;6.568;2024-01-06T10:09:59;18.00;;;12.57;;
53533;SDS011;39421;53.204;6.568;2024-01-06T10:12:25;18.17;;;12.10;;
53533;SDS011;39421;53.204;6.568;2024-01-06T10:14:52;18.33;;;12.63;;
53533;SDS011;39421;53.204;6.568;2024-01-06T10:17:18;18.00;;;12.07;;
53533;SDS011;39421;53.204;6.568;2024-01-06T10:19:44;18.07;;;12.53;;
53533;SDS011;39421;53.204;6.568;2024-01-06T10:22:11;17.27;;;11.90;;
53533;SDS011;39421;53.204;6.568;2024-01-06T10:24:37;17.88;;;12.27;;
53533;SDS011;39421;53.204;6.568;2024-01-06T10:27:03;18.37;;;12.57;;
53533;SDS011;39421;53.204;6.568;2024-01-06T10:29:30;16.90;;;12.05;;
53533;SDS011;39421;53.204;6.568;2024-01-06T10:31:56;17.52;;;11.55;;
53533;SDS011;39421;53.204;6.568;2024-01-06T10:34:23;17.42;;;11.93;;
53533;SDS011;39421;53.204;6.568;2024-01-06T10:36:49;18.25;;;12.60;;
53533;SDS011;39421;53.204;6.568;2024-01-06T10:39:17;16.65;;;12.02;;
53533;SDS011;39421;53.204;6.568;2024-01-06T10:41:44;18.60;;;12.75;;
53533;SDS011;39421;53.204;6.568;2024-01-06T10:44:11;17.77;;;12.00;;
53533;SDS011;39421;53.204;6.568;2024-01-06T10:46:37;17.13;;;11.43;;
53533;SDS011;39421;53.204;6.568;2024-01-06T10:49:05;17.80;;;11.98;;
53533;SDS011;39421;53.204;6.568;2024-01-06T10:51:33;17.20;;;11.82;;
53533;SDS011;39421;53.204;6.568;2024-01-06T10:54:00;17.88;;;12.15;;
53533;SDS011;39421;53.204;6.568;2024-01-06T10:56:27;16.88;;;11.20;;
53533;SDS011;39421;53.204;6.568;2024-01-06T10:58:55;17.37;;;11.63;;
53533;SDS011;39421;53.204;6.568;2024-01-06T11:01:22;16.95;;;11.10;;
53533;SDS011;39421;53.204;6.568;2024-01-06T11:03:50;17.20;;;11.35;;
53533;SDS011;39421;53.204;6.568;2024-01-06T11:06:16;16.77;;;10.48;;
53533;SDS011;39421;53.204;6.568;2024-01-06T11:11:23;15.75;;;10.02;;
53533;SDS011;39421;53.204;6.568;2024-01-06T11:13:49;15.57;;;9.85;;
53533;SDS011;39421;53.204;6.568;2024-01-06T11:16:34;14.25;;;9.38;;
53533;SDS011;39421;53.204;6.568;2024-01-06T11:19:01;15.13;;;10.23;;
53533;SDS011;39421;53.204;6.568;2024-01-06T11:21:33;15.77;;;10.13;;
53533;SDS011;39421;53.204;6.568;2024-01-06T11:26:38;15.90;;;10.73;;
53533;SDS011;39421;53.204;6.568;2024-01-06T11:29:05;15.77;;;9.98;;
53533;SDS011;39421;53.204;6.568;2024-01-06T11:31:32;14.48;;;9.63;;
53533;SDS011;39421;53.204;6.568;2024-01-06T11:34:16;15.52;;;10.27;;
53533;SDS011;39421;53.204;6.568;2024-01-06T11:36:53;15.13;;;9.13;;
53533;SDS011;39421;53.204;6.568;2024-01-06T11:39:37;14.65;;;9.35;;
53533;SDS011;39421;53.204;6.568;2024-01-06T11:42:07;14.30;;;9.52;;
53533;SDS011;39421;53.204;6.568;2024-01-06T11:44:36;13.10;;;8.70;;
53533;SDS011;39421;53.204;6.568;2024-01-06T11:47:02;13.73;;;9.00;;
53533;SDS011;39421;53.204;6.568;2024-01-06T11:49:30;12.50;;;8.00;;
53533;SDS011;39421;53.204;6.568;2024-01-06T11:51:56;12.63;;;8.43;;
53533;SDS011;39421;53.204;6.568;2024-01-06T11:54:22;13.05;;;8.50;;
53533;SDS011;39421;53.204;6.568;2024-01-06T11:56:49;12.37;;;7.93;;
53533;SDS011;39421;53.204;6.568;2024-01-06T11:59:15;13.25;;;8.30;;
53533;SDS011;39421;53.204;6.568;2024-01-06T12:01:41;12.32;;;7.72;;
53533;SDS011;39421;53.204;6.568;2024-01-06T12:04:07;12.30;;;8.30;;
53533;SDS011;39421;53.204;6.568;2024-01-06T12:06:33;12.45;;;8.10;;
53533;SDS011;39421;53.204;6.568;2024-01-06T12:09:06;12.40;;;8.13;;
53533;SDS011;39421;53.204;6.568;2024-01-06T12:11:32;12.70;;;8.33;;
53533;SDS011;39421;53.204;6.568;2024-01-06T12:13:58;12.53;;;8.27;;
53533;SDS011;39421;53.204;6.568;2024-01-06T12:16:24;13.35;;;8.63;;
53533;SDS011;39421;53.204;6.568;2024-01-06T12:18:54;13.02;;;8.35;;
53533;SDS011;39421;53.204;6.568;2024-01-06T12:21:25;12.68;;;8.32;;
53533;SDS011;39421;53.204;6.568;2024-01-06T12:23:51;12.30;;;7.70;;
53533;SDS011;39421;53.204;6.568;2024-01-06T12:26:18;12.60;;;7.78;;
53533;SDS011;39421;53.204;6.568;2024-01-06T12:28:44;12.25;;;7.70;;
53533;SDS011;39421;53.204;6.568;2024-01-06T12:31:11;12.25;;;8.00;;
53533;SDS011;39421;53.204;6.568;2024-01-06T12:33:40;12.52;;;8.18;;
53533;SDS011;39421;53.204;6.568;2024-01-06T12:36:07;12.50;;;8.23;;
53533;SDS011;39421;53.204;6.568;2024-01-06T12:38:39;12.82;;;8.13;;
53533;SDS011;39421;53.204;6.568;2024-01-06T12:41:07;12.85;;;8.15;;
53533;SDS011;39421;53.204;6.568;2024-01-06T12:43:33;12.85;;;8.18;;
53533;SDS011;39421;53.204;6.568;2024-01-06T12:46:00;12.57;;;8.40;;
53533;SDS011;39421;53.204;6.568;2024-01-06T12:48:26;12.35;;;8.18;;
53533;SDS011;39421;53.204;6.568;2024-01-06T12:50:52;13.10;;;7.60;;
53533;SDS011;39421;53.204;6.568;2024-01-06T12:53:18;12.45;;;7.95;;
53533;SDS011;39421;53.204;6.568;2024-01-06T12:55:44;12.60;;;8.02;;
53533;SDS011;39421;53.204;6.568;2024-01-06T12:58:10;12.30;;;8.47;;
53533;SDS011;39421;53.204;6.568;2024-01-06T13:00:36;12.60;;;8.23;;
53533;SDS011;39421;53.204;6.568;2024-01-06T13:03:05;12.50;;;7.95;;
53533;SDS011;39421;53.204;6.568;2024-01-06T13:05:31;12.68;;;8.30;;
53533;SDS011;39421;53.204;6.568;2024-01-06T13:07:57;13.30;;;8.40;;
53533;SDS011;39421;53.204;6.568;2024-01-06T13:10:23;12.57;;;8.05;;
53533;SDS011;39421;53.204;6.568;2024-01-06T13:12:49;13.18;;;8.57;;
53533;SDS011;39421;53.204;6.568;2024-01-06T13:15:15;13.25;;;8.40;;
53533;SDS011;39421;53.204;6.568;2024-01-06T13:17:41;12.87;;;8.37;;
53533;SDS011;39421;53.204;6.568;2024-01-06T13:20:08;13.60;;;8.77;;
53533;SDS011;39421;53.204;6.568;2024-01-06T13:22:34;12.90;;;8.30;;
53533;SDS011;39421;53.204;6.568;2024-01-06T13:25:00;12.93;;;8.27;;
53533;SDS011;39421;53.204;6.568;2024-01-06T13:27:26;13.60;;;8.38;;
53533;SDS011;39421;53.204;6.568;2024-01-06T13:29:53;13.80;;;8.70;;
53533;SDS011;39421;53.204;6.568;2024-01-06T13:32:19;13.23;;;8.40;;
53533;SDS011;39421;53.204;6.568;2024-01-06T13:34:47;13.10;;;8.63;;
53533;SDS011;39421;53.204;6.568;2024-01-06T13:37:13;13.77;;;8.30;;
53533;SDS011;39421;53.204;6.568;2024-01-06T13:39:40;12.70;;;7.95;;
53533;SDS011;39421;53.204;6.568;2024-01-06T13:42:06;12.50;;;7.60;;
53533;SDS011;39421;53.204;6.568;2024-01-06T13:44:32;11.90;;;7.57;;
53533;SDS011;39421;53.204;6.568;2024-01-06T13:46:58;13.43;;;8.32;;
53533;SDS011;39421;53.204;6.568;2024-01-06T13:49:25;12.48;;;7.88;;
53533;SDS011;39421;53.204;6.568;2024-01-06T13:51:51;12.50;;;8.02;;
53533;SDS011;39421;53.204;6.568;2024-01-06T13:54:17;12.43;;;8.13;;
53533;SDS011;39421;53.204;6.568;2024-01-06T13:56:43;12.13;;;7.78;;
53533;SDS011;39421;53.204;6.568;2024-01-06T13:59:09;12.73;;;7.80;;
53533;SDS011;39421;53.204;6.568;2024-01-06T14:01:35;12.77;;;8.07;;
53533;SDS011;39421;53.204;6.568;2024-01-06T14:04:01;13.35;;;8.05;;
53533;SDS011;39421;53.204;6.568;2024-01-06T14:06:27;12.75;;;8.10;;
53533;SDS011;39421;53.204;6.568;2024-01-06T14:08:58;12.77;;;7.93;;
53533;SDS011;39421;53.204;6.568;2024-01-06T14:11:25;12.00;;;7.70;;
53533;SDS011;39421;53.204;6.568;2024-01-06T14:13:52;12.05;;;7.55;;
53533;SDS011;39421;53.204;6.568;2024-01-06T14:16:18;13.10;;;7.73;;
53533;SDS011;39421;53.204;6.568;2024-01-06T14:18:45;12.13;;;7.45;;
53533;SDS011;39421;53.204;6.568;2024-01-06T14:21:11;12.48;;;7.93;;
53533;SDS011;39421;53.204;6.568;2024-01-06T14:23:44;12.50;;;7.75;;
53533;SDS011;39421;53.204;6.568;2024-01-06T14:26:10;12.73;;;7.77;;
53533;SDS011;39421;53.204;6.568;2024-01-06T14:28:36;12.77;;;8.30;;
53533;SDS011;39421;53.204;6.568;2024-01-06T14:31:03;12.73;;;8.02;;
53533;SDS011;39421;53.204;6.568;2024-01-06T14:33:29;13.18;;;8.63;;
53533;SDS011;39421;53.204;6.568;2024-01-06T14:35:56;13.23;;;8.40;;
53533;SDS011;39421;53.204;6.568;2024-01-06T14:38:22;13.45;;;8.45;;
53533;SDS011;39421;53.204;6.568;2024-01-06T14:40:48;13.75;;;8.60;;
53533;SDS011;39421;53.204;6.568;2024-01-06T14:43:14;13.77;;;9.03;;
53533;SDS011;39421;53.204;6.568;2024-01-06T14:45:40;13.50;;;8.52;;
53533;SDS011;39421;53.204;6.568;2024-01-06T14:48:06;13.98;;;9.15;;
53533;SDS011;39421;53.204;6.568;2024-01-06T14:50:33;13.40;;;8.65;;
53533;SDS011;39421;53.204;6.568;2024-01-06T14:52:59;12.90;;;8.30;;
53533;SDS011;39421;53.204;6.568;2024-01-06T14:55:25;13.40;;;8.40;;
53533;SDS011;39421;53.204;6.568;2024-01-06T14:57:51;13.65;;;8.55;;
53533;SDS011;39421;53.204;6.568;2024-01-06T15:00:17;13.55;;;8.75;;
53533;SDS011;39421;53.204;6.568;2024-01-06T15:02:43;13.57;;;8.52;;
53533;SDS011;39421;53.204;6.568;2024-01-06T15:05:11;13.45;;;8.68;;
53533;SDS011;39421;53.204;6.568;2024-01-06T15:07:38;13.53;;;8.63;;
53533;SDS011;39421;53.204;6.568;2024-01-06T15:10:04;14.48;;;8.55;;
53533;SDS011;39421;53.204;6.568;2024-01-06T15:12:30;13.05;;;8.25;;
53533;SDS011;39421;53.204;6.568;2024-01-06T15:14:57;14.00;;;8.73;;
53533;SDS011;39421;53.204;6.568;2024-01-06T15:17:25;13.40;;;8.60;;
53533;SDS011;39421;53.204;6.568;2024-01-06T15:19:52;13.77;;;8.80;;
53533;SDS011;39421;53.204;6.568;2024-01-06T15:22:18;14.23;;;8.50;;
53533;SDS011;39421;53.204;6.568;2024-01-06T15:24:44;14.00;;;9.00;;
53533;SDS011;39421;53.204;6.568;2024-01-06T15:27:12;13.73;;;8.55;;
53533;SDS011;39421;53.204;6.568;2024-01-06T15:29:39;15.38;;;9.98;;
53533;SDS011;39421;53.204;6.568;2024-01-06T15:32:05;14.07;;;8.98;;
53533;SDS011;39421;53.204;6.568;2024-01-06T15:34:32;14.35;;;9.07;;
53533;SDS011;39421;53.204;6.568;2024-01-06T15:36:59;15.37;;;9.80;;
53533;SDS011;39421;53.204;6.568;2024-01-06T15:39:25;14.75;;;9.35;;
53533;SDS011;39421;53.204;6.568;2024-01-06T15:41:51;15.82;;;9.98;;
53533;SDS011;39421;53.204;6.568;2024-01-06T15:44:17;15.50;;;9.88;;
53533;SDS011;39421;53.204;6.568;2024-01-06T15:46:43;16.40;;;10.57;;
53533;SDS011;39421;53.204;6.568;2024-01-06T15:49:09;14.87;;;9.37;;
53533;SDS011;39421;53.204;6.568;2024-01-06T15:51:36;14.80;;;9.27;;
53533;SDS011;39421;53.204;6.568;2024-01-06T15:54:02;15.95;;;9.70;;
53533;SDS011;39421;53.204;6.568;2024-01-06T15:56:28;14.43;;;9.43;;
53533;SDS011;39421;53.204;6.568;2024-01-06T15:58:54;15.20;;;9.75;;
53533;SDS011;39421;53.204;6.568;2024-01-06T16:01:22;15.27;;;9.68;;
53533;SDS011;39421;53.204;6.568;2024-01-06T16:03:48;14.38;;;9.07;;
53533;SDS011;39421;53.204;6.568;2024-01-06T16:06:14;15.05;;;9.48;;
53533;SDS011;39421;53.204;6.568;2024-01-06T16:08:40;14.80;;;9.30;;
53533;SDS011;39421;53.204;6.568;2024-01-06T16:11:07;13.90;;;9.00;;
53533;SDS011;39421;53.204;6.568;2024-01-06T16:13:33;14.95;;;9.60;;
53533;SDS011;39421;53.204;6.568;2024-01-06T16:16:00;14.73;;;9.40;;
53533;SDS011;39421;53.204;6.568;2024-01-06T16:18:26;14.90;;;9.38;;
53533;SDS011;39421;53.204;6.568;2024-01-06T16:20:53;14.07;;;8.90;;
53533;SDS011;39421;53.204;6.568;2024-01-06T16:23:19;14.13;;;8.85;;
53533;SDS011;39421;53.204;6.568;2024-01-06T16:25:48;14.13;;;8.98;;
53533;SDS011;39421;53.204;6.568;2024-01-06T16:28:15;14.30;;;8.65;;
53533;SDS011;39421;53.204;6.568;2024-01-06T16:30:41;14.10;;;8.90;;
53533;SDS011;39421;53.204;6.568;2024-01-06T16:33:07;13.45;;;8.25;;
53533;SDS011;39421;53.204;6.568;2024-01-06T16:35:34;14.20;;;8.82;;
53533;SDS011;39421;53.204;6.568;2024-01-06T16:38:03;14.70;;;8.95;;
53533;SDS011;39421;53.204;6.568;2024-01-06T16:40:29;14.05;;;8.27;;
53533;SDS011;39421;53.204;6.568;2024-01-06T16:42:56;13.88;;;8.95;;
53533;SDS011;39421;53.204;6.568;2024-01-06T16:45:22;13.27;;;8.07;;
53533;SDS011;39421;53.204;6.568;2024-01-06T16:47:48;13.83;;;8.80;;
53533;SDS011;39421;53.204;6.568;2024-01-06T16:50:14;13.77;;;8.25;;
53533;SDS011;39421;53.204;6.568;2024-01-06T16:52:40;13.85;;;8.48;;
53533;SDS011;39421;53.204;6.568;2024-01-06T16:55:07;13.02;;;8.35;;
53533;SDS011;39421;53.204;6.568;2024-01-06T16:57:33;12.85;;;7.85;;
53533;SDS011;39421;53.204;6.568;2024-01-06T17:00:00;15.30;;;8.83;;
53533;SDS011;39421;53.204;6.568;2024-01-06T17:02:27;13.60;;;7.93;;
53533;SDS011;39421;53.204;6.568;2024-01-06T17:04:53;11.50;;;7.35;;
53533;SDS011;39421;53.204;6.568;2024-01-06T17:07:19;12.75;;;7.93;;
53533;SDS011;39421;53.204;6.568;2024-01-06T17:09:45;13.18;;;7.93;;
53533;SDS011;39421;53.204;6.568;2024-01-06T17:12:14;12.98;;;8.52;;
53533;SDS011;39421;53.204;6.568;2024-01-06T17:14:41;13.05;;;8.60;;
53533;SDS011;39421;53.204;6.568;2024-01-06T17:17:07;12.82;;;8.48;;
53533;SDS011;39421;53.204;6.568;2024-01-06T17:19:33;13.40;;;8.43;;
53533;SDS011;39421;53.204;6.568;2024-01-06T17:22:00;13.57;;;8.82;;
53533;SDS011;39421;53.204;6.568;2024-01-06T17:24:26;12.80;;;8.30;;
53533;SDS011;39421;53.204;6.568;2024-01-06T17:26:52;13.23;;;8.32;;
53533;SDS011;39421;53.204;6.568;2024-01-06T17:29:18;12.93;;;8.43;;
53533;SDS011;39421;53.204;6.568;2024-01-06T17:31:44;12.77;;;8.02;;
53533;SDS011;39421;53.204;6.568;2024-01-06T17:34:11;14.02;;;8.88;;
53533;SDS011;39421;53.204;6.568;2024-01-06T17:36:37;13.13;;;7.88;;
53533;SDS011;39421;53.204;6.568;2024-01-06T17:39:03;12.88;;;7.82;;
53533;SDS011;39421;53.204;6.568;2024-01-06T17:41:29;12.50;;;7.83;;
53533;SDS011;39421;53.204;6.568;2024-01-06T17:43:56;12.35;;;7.30;;
53533;SDS011;39421;53.204;6.568;2024-01-06T17:46:23;12.60;;;7.72;;
53533;SDS011;39421;53.204;6.568;2024-01-06T17:48:53;12.70;;;7.60;;
53533;SDS011;39421;53.204;6.568;2024-01-06T17:51:20;11.85;;;7.10;;
53533;SDS011;39421;53.204;6.568;2024-01-06T17:53:49;12.15;;;7.68;;
53533;SDS011;39421;53.204;6.568;2024-01-06T17:56:16;12.80;;;7.63;;
53533;SDS011;39421;53.204;6.568;2024-01-06T17:58:43;12.10;;;7.63;;
53533;SDS011;39421;53.204;6.568;2024-01-06T18:01:10;12.27;;;7.60;;
53533;SDS011;39421;53.204;6.568;2024-01-06T18:03:37;12.57;;;7.80;;
53533;SDS011;39421;53.204;6.568;2024-01-06T18:06:04;12.07;;;6.90;;
53533;SDS011;39421;53.204;6.568;2024-01-06T18:08:33;11.60;;;7.25;;
53533;SDS011;39421;53.204;6.568;2024-01-06T18:10:59;11.45;;;7.07;;
53533;SDS011;39421;53.204;6.568;2024-01-06T18:13:25;11.85;;;6.97;;
53533;SDS011;39421;53.204;6.568;2024-01-06T18:15:52;11.73;;;6.88;;
53533;SDS011;39421;53.204;6.568;2024-01-06T18:18:18;11.00;;;6.70;;
53533;SDS011;39421;53.204;6.568;2024-01-06T18:20:44;10.80;;;6.38;;
53533;SDS011;39421;53.204;6.568;2024-01-06T18:23:10;12.07;;;7.32;;
53533;SDS011;39421;53.204;6.568;2024-01-06T18:25:36;12.55;;;7.00;;
53533;SDS011;39421;53.204;6.568;2024-01-06T18:28:03;11.63;;;6.95;;
53533;SDS011;39421;53.204;6.568;2024-01-06T18:30:29;11.35;;;6.30;;
53533;SDS011;39421;53.204;6.568;2024-01-06T18:32:58;11.50;;;7.00;;
53533;SDS011;39421;53.204;6.568;2024-01-06T18:35:24;11.55;;;6.68;;
53533;SDS011;39421;53.204;6.568;2024-01-06T18:37:50;10.57;;;6.50;;
53533;SDS011;39421;53.204;6.568;2024-01-06T18:40:16;10.82;;;6.22;;
53533;SDS011;39421;53.204;6.568;2024-01-06T18:42:43;11.10;;;6.68;;
53533;SDS011;39421;53.204;6.568;2024-01-06T18:45:09;11.90;;;6.88;;
53533;SDS011;39421;53.204;6.568;2024-01-06T18:47:35;11.10;;;6.50;;
53533;SDS011;39421;53.204;6.568;2024-01-06T18:50:01;12.27;;;7.13;;
53533;SDS011;39421;53.204;6.568;2024-01-06T18:52:28;11.43;;;6.57;;
53533;SDS011;39421;53.204;6.568;2024-01-06T18:54:56;11.60;;;7.07;;
53533;SDS011;39421;53.204;6.568;2024-01-06T18:57:23;12.33;;;7.13;;
53533;SDS011;39421;53.204;6.568;2024-01-06T18:59:49;11.75;;;6.60;;
53533;SDS011;39421;53.204;6.568;2024-01-06T19:02:15;11.65;;;7.15;;
53533;SDS011;39421;53.204;6.568;2024-01-06T19:04:42;11.73;;;7.22;;
53533;SDS011;39421;53.204;6.568;2024-01-06T19:07:09;11.97;;;7.23;;
53533;SDS011;39421;53.204;6.568;2024-01-06T19:09:35;12.23;;;6.97;;
53533;SDS011;39421;53.204;6.568;2024-01-06T19:12:01;10.90;;;6.60;;
53533;SDS011;39421;53.204;6.568;2024-01-06T19:14:28;11.87;;;7.07;;
53533;SDS011;39421;53.204;6.568;2024-01-06T19:16:54;11.57;;;7.13;;
53533;SDS011;39421;53.204;6.568;2024-01-06T19:19:20;12.52;;;7.15;;
53533;SDS011;39421;53.204;6.568;2024-01-06T19:21:47;12.05;;;7.45;;
53533;SDS011;39421;53.204;6.568;2024-01-06T19:24:14;12.13;;;7.25;;
53533;SDS011;39421;53.204;6.568;2024-01-06T19:26:40;12.48;;;7.95;;
53533;SDS011;39421;53.204;6.568;2024-01-06T19:29:07;12.57;;;7.88;;
53533;SDS011;39421;53.204;6.568;2024-01-06T19:31:33;13.45;;;7.80;;
53533;SDS011;39421;53.204;6.568;2024-01-06T19:34:00;13.95;;;8.60;;
53533;SDS011;39421;53.204;6.568;2024-01-06T19:36:27;13.38;;;8.35;;
53533;SDS011;39421;53.204;6.568;2024-01-06T19:38:53;13.17;;;8.33;;
53533;SDS011;39421;53.204;6.568;2024-01-06T19:41:19;13.20;;;8.23;;
53533;SDS011;39421;53.204;6.568;2024-01-06T19:43:45;12.40;;;7.57;;
53533;SDS011;39421;53.204;6.568;2024-01-06T19:46:11;13.02;;;8.05;;
53533;SDS011;39421;53.204;6.568;2024-01-06T19:48:37;14.63;;;8.50;;
53533;SDS011;39421;53.204;6.568;2024-01-06T19:51:04;13.53;;;8.40;;
53533;SDS011;39421;53.204;6.568;2024-01-06T19:53:30;12.80;;;7.72;;
53533;SDS011;39421;53.204;6.568;2024-01-06T19:55:57;14.48;;;8.68;;
53533;SDS011;39421;53.204;6.568;2024-01-06T19:58:23;13.10;;;8.13;;
53533;SDS011;39421;53.204;6.568;2024-01-06T20:00:49;13.68;;;8.57;;
53533;SDS011;39421;53.204;6.568;2024-01-06T20:03:15;14.48;;;8.60;;
53533;SDS011;39421;53.204;6.568;2024-01-06T20:05:41;13.80;;;8.65;;
53533;SDS011;39421;53.204;6.568;2024-01-06T20:08:07;14.10;;;8.60;;
53533;SDS011;39421;53.204;6.568;2024-01-06T20:10:33;14.43;;;8.23;;
53533;SDS011;39421;53.204;6.568;2024-01-06T20:12:59;13.82;;;8.52;;
53533;SDS011;39421;53.204;6.568;2024-01-06T20:15:25;13.48;;;8.73;;
53533;SDS011;39421;53.204;6.568;2024-01-06T20:17:52;13.77;;;8.93;;
53533;SDS011;39421;53.204;6.568;2024-01-06T20:20:18;14.80;;;8.98;;
53533;SDS011;39421;53.204;6.568;2024-01-06T20:22:44;15.60;;;9.45;;
53533;SDS011;39421;53.204;6.568;2024-01-06T20:25:11;14.23;;;8.70;;
53533;SDS011;39421;53.204;6.568;2024-01-06T20:27:37;14.52;;;8.55;;
53533;SDS011;39421;53.204;6.568;2024-01-06T20:30:04;14.37;;;8.60;;
53533;SDS011;39421;53.204;6.568;2024-01-06T20:32:30;13.10;;;8.15;;
53533;SDS011;39421;53.204;6.568;2024-01-06T20:34:56;14.07;;;8.50;;
53533;SDS011;39421;53.204;6.568;2024-01-06T20:37:24;14.30;;;8.23;;
53533;SDS011;39421;53.204;6.568;2024-01-06T20:39:52;14.70;;;8.73;;
53533;SDS011;39421;53.204;6.568;2024-01-06T20:42:19;14.15;;;8.55;;
53533;SDS011;39421;53.204;6.568;2024-01-06T20:44:45;15.57;;;9.15;;
53533;SDS011;39421;53.204;6.568;2024-01-06T20:47:11;15.07;;;9.00;;
53533;SDS011;39421;53.204;6.568;2024-01-06T20:49:38;14.13;;;8.70;;
53533;SDS011;39421;53.204;6.568;2024-01-06T20:52:04;14.25;;;8.77;;
53533;SDS011;39421;53.204;6.568;2024-01-06T20:54:32;14.52;;;8.77;;
53533;SDS011;39421;53.204;6.568;2024-01-06T20:56:58;15.80;;;9.73;;
53533;SDS011;39421;53.204;6.568;2024-01-06T20:59:24;14.93;;;8.93;;
53533;SDS011;39421;53.204;6.568;2024-01-06T21:01:53;14.32;;;8.75;;
53533;SDS011;39421;53.204;6.568;2024-01-06T21:04:19;15.60;;;8.80;;
53533;SDS011;39421;53.204;6.568;2024-01-06T21:06:45;13.73;;;8.50;;
53533;SDS011;39421;53.204;6.568;2024-01-06T21:09:12;14.00;;;8.65;;
53533;SDS011;39421;53.204;6.568;2024-01-06T21:11:38;14.73;;;8.75;;
53533;SDS011;39421;53.204;6.568;2024-01-06T21:14:04;14.55;;;8.50;;
53533;SDS011;39421;53.204;6.568;2024-01-06T21:16:30;13.75;;;8.30;;
53533;SDS011;39421;53.204;6.568;2024-01-06T21:18:59;14.10;;;8.20;;
53533;SDS011;39421;53.204;6.568;2024-01-06T21:21:25;13.88;;;8.07;;
53533;SDS011;39421;53.204;6.568;2024-01-06T21:23:51;13.55;;;8.65;;
53533;SDS011;39421;53.204;6.568;2024-01-06T21:26:20;13.00;;;7.82;;
53533;SDS011;39421;53.204;6.568;2024-01-06T21:28:49;12.77;;;7.75;;
53533;SDS011;39421;53.204;6.568;2024-01-06T21:31:17;13.68;;;7.85;;
53533;SDS011;39421;53.204;6.568;2024-01-06T21:33:44;14.73;;;8.60;;
53533;SDS011;39421;53.204;6.568;2024-01-06T21:36:13;14.48;;;8.43;;
53533;SDS011;39421;53.204;6.568;2024-01-06T21:38:42;13.60;;;8.03;;
53533;SDS011;39421;53.204;6.568;2024-01-06T21:41:08;14.13;;;7.77;;
53533;SDS011;39421;53.204;6.568;2024-01-06T21:43:35;13.83;;;7.90;;
53533;SDS011;39421;53.204;6.568;2024-01-06T21:46:01;13.23;;;7.55;;
53533;SDS011;39421;53.204;6.568;2024-01-06T21:48:27;12.70;;;7.40;;
53533;SDS011;39421;53.204;6.568;2024-01-06T21:50:55;13.60;;;7.30;;
53533;SDS011;39421;53.204;6.568;2024-01-06T21:53:21;12.02;;;7.28;;
53533;SDS011;39421;53.204;6.568;2024-01-06T21:55:47;12.05;;;7.03;;
53533;SDS011;39421;53.204;6.568;2024-01-06T21:58:14;12.20;;;7.15;;
53533;SDS011;39421;53.204;6.568;2024-01-06T22:00:40;11.40;;;6.40;;
53533;SDS011;39421;53.204;6.568;2024-01-06T22:03:07;11.60;;;6.40;;
53533;SDS011;39421;53.204;6.568;2024-01-06T22:05:33;11.95;;;6.40;;
53533;SDS011;39421;53.204;6.568;2024-01-06T22:08:00;11.10;;;6.47;;
53533;SDS011;39421;53.204;6.568;2024-01-06T22:10:26;11.60;;;6.77;;
53533;SDS011;39421;53.204;6.568;2024-01-06T22:12:58;11.43;;;6.68;;
53533;SDS011;39421;53.204;6.568;2024-01-06T22:15:24;11.18;;;6.70;;
53533;SDS011;39421;53.204;6.568;2024-01-06T22:17:50;12.00;;;6.55;;
53533;SDS011;39421;53.204;6.568;2024-01-06T22:20:19;11.93;;;6.63;;
53533;SDS011;39421;53.204;6.568;2024-01-06T22:22:46;12.35;;;7.18;;
53533;SDS011;39421;53.204;6.568;2024-01-06T22:25:12;13.05;;;7.32;;
53533;SDS011;39421;53.204;6.568;2024-01-06T22:27:39;11.82;;;6.75;;
53533;SDS011;39421;53.204;6.568;2024-01-06T22:30:05;11.27;;;6.70;;
53533;SDS011;39421;53.204;6.568;2024-01-06T22:32:32;11.38;;;6.43;;
53533;SDS011;39421;53.204;6.568;2024-01-06T22:34:59;12.07;;;6.93;;
53533;SDS011;39421;53.204;6.568;2024-01-06T22:37:25;11.82;;;7.00;;
53533;SDS011;39421;53.204;6.568;2024-01-06T22:39:51;11.87;;;6.70;;
53533;SDS011;39421;53.204;6.568;2024-01-06T22:42:18;11.80;;;6.75;;
53533;SDS011;39421;53.204;6.568;2024-01-06T22:44:44;11.90;;;6.53;;
53533;SDS011;39421;53.204;6.568;2024-01-06T22:47:10;11.77;;;6.57;;
53533;SDS011;39421;53.204;6.568;2024-01-06T22:49:36;12.05;;;6.50;;
53533;SDS011;39421;53.204;6.568;2024-01-06T22:52:03;11.20;;;6.30;;
53533;SDS011;39421;53.204;6.568;2024-01-06T22:54:29;10.53;;;6.30;;
53533;SDS011;39421;53.204;6.568;2024-01-06T22:56:55;11.70;;;6.70;;
53533;SDS011;39421;53.204;6.568;2024-01-06T22:59:22;12.70;;;7.00;;
53533;SDS011;39421;53.204;6.568;2024-01-06T23:01:51;11.53;;;6.50;;
53533;SDS011;39421;53.204;6.568;2024-01-06T23:04:18;12.20;;;6.72;;
53533;SDS011;39421;53.204;6.568;2024-01-06T23:06:44;11.35;;;6.50;;
53533;SDS011;39421;53.204;6.568;2024-01-06T23:09:10;11.35;;;6.18;;
53533;SDS011;39421;53.204;6.568;2024-01-06T23:11:37;11.87;;;6.53;;
53533;SDS011;39421;53.204;6.568;2024-01-06T23:14:03;12.45;;;6.55;;
53533;SDS011;39421;53.204;6.568;2024-01-06T23:16:29;12.02;;;6.80;;
53533;SDS011;39421;53.204;6.568;2024-01-06T23:18:55;11.30;;;6.50;;
53533;SDS011;39421;53.204;6.568;2024-01-06T23:21:25;11.63;;;6.25;;
53533;SDS011;39421;53.204;6.568;2024-01-06T23:23:51;11.85;;;6.68;;
53533;SDS011;39421;53.204;6.568;2024-01-06T23:26:17;12.30;;;6.50;;
53533;SDS011;39421;53.204;6.568;2024-01-06T23:28:43;12.98;;;7.05;;
53533;SDS011;39421;53.204;6.568;2024-01-06T23:31:10;12.90;;;6.80;;
53533;SDS011;39421;53.204;6.568;2024-01-06T23:33:36;11.65;;;6.80;;